Hlavní strana
METAR-TAF:

METAR-TAF

Letiště :

Tromsø, Norsko

zeměpisná šířka: 69-41N, zeměpisná délka: 018-55E, výška: 1 m

Aktuální stav počasí

Zpráva byla vytvořena před 16 minutami, v 18:20 UTC
Jihozápadní vítr 8 kt
Teplota -5°C
Vlhkost vzduchu 93%
Tlak 996 hPa
Viditelnost 10 km a více
Oblačno až skoro zataženo ve výšce 700 ft

METAR: ENTC 181820Z 23008KT 9999 BKN007 M05/M06 Q0996 TEMPO FEW008 RMK WIND 2600FT /////KT

Čas: 19:36 (18:36 UTC)

Předpověď počasí

Předpověď platná od 18 v 18 UTC do 19 v 18 UTC
Jihozápadní vítr 8 kt
Viditelnost 10 km a více
Skoro jasno ve výšce 500 ft
Oblačno až skoro zataženo ve výšce 3000 ft
Dočasný
od 18 v 18 UTC do 19 v 18 UTC
Viditelnost: 2000 m
ve výšce 800 ft
sněhové přeháňky

TAF: ENTC 1818/1918 22008KT 9999 FEW005 BKN030 TEMPO 1818/1918 2000 SHSN VV008

Stav a předpovědi počasí z více než 4 000 letišť (zprávy METAR a TAF).

Červené a žluté tečky na mapě představují dostupné meteorologické stanice.

Když kurzor umístíte na tečku, zobrazí se název stanice.

Pak kliknutím zobrazíte stav a předpověď počasí.

Chcete-li změnit mapu, kliknutím na zelené tlačítko se znaménkem +mapu přiblížíte, kliknutím na zelené tlačítko se znaménkem – mapu oddálíte a kliknutím na zelené šipky přejdete na sousední mapy.


METAR-TAF: